Time;durP1;ratioP1;P1;durP2;ratioP2;P2;SDS_P1;SDS_P2;PMS_P1;PMS_P2;Temp;Humidity;BMP_temperature;BMP_pressure;BME280_temperature;BME280_humidity;BME280_pressure;Samples;Min_cycle;Max_cycle;Signal;HPM_P1;HPM_P2
2023/03/18 00:01:44;;;;;;;2.95;1.17;;;26.40;33.80;;;;;;5060169;28;20538;-57
2023/03/18 00:04:11;;;;;;;2.40;1.10;;;26.10;34.00;;;;;;5063359;28;20083;-59
2023/03/18 00:06:38;;;;;;;5.75;1.20;;;26.00;34.30;;;;;;5084119;28;20071;-60
2023/03/18 00:09:05;;;;;;;4.57;1.15;;;26.00;34.20;;;;;;5090320;28;21645;-63
2023/03/18 00:11:31;;;;;;;3.97;1.10;;;26.00;34.40;;;;;;5084367;28;20123;-61
2023/03/18 00:13:59;;;;;;;4.20;1.20;;;25.70;34.10;;;;;;5089829;28;20110;-60
2023/03/18 00:16:25;;;;;;;7.03;1.40;;;25.50;34.40;;;;;;5080987;28;20597;-60
2023/03/18 00:18:53;;;;;;;2.58;1.30;;;25.50;35.00;;;;;;5083831;28;20098;-61
2023/03/18 00:21:19;;;;;;;2.17;1.10;;;25.50;35.10;;;;;;5086310;28;20110;-61
2023/03/18 00:23:48;;;;;;;5.35;1.35;;;25.40;35.40;;;;;;5079735;28;20096;-60
2023/03/18 00:26:15;;;;;;;5.07;1.20;;;25.30;34.60;;;;;;5070376;28;20170;-60
2023/03/18 00:28:42;;;;;;;2.58;1.10;;;25.30;34.90;;;;;;5085145;28;20074;-60
2023/03/18 00:31:12;;;;;;;2.65;1.10;;;25.10;34.90;;;;;;5082533;28;20072;-57
2023/03/18 00:33:39;;;;;;;4.22;1.20;;;25.10;34.70;;;;;;5076753;28;20435;-57
2023/03/18 00:36:08;;;;;;;9.27;1.70;;;25.10;34.70;;;;;;5090243;28;20091;-58
2023/03/18 00:38:35;;;;;;;6.70;1.38;;;25.10;35.10;;;;;;5089340;28;20082;-59
2023/03/18 00:41:11;;;;;;;1.52;0.90;;;24.90;35.00;;;;;;5089724;28;20153;-60
2023/03/18 00:43:51;;;;;;;4.68;1.60;;;24.80;35.50;;;;;;5089884;28;20536;-58
2023/03/18 00:46:25;;;;;;;5.13;1.50;;;24.80;35.80;;;;;;5089091;28;20083;-61
2023/03/18 00:48:53;;;;;;;1.25;0.82;;;24.80;35.70;;;;;;5089539;28;20070;-58
2023/03/18 00:51:21;;;;;;;2.63;1.15;;;24.80;34.60;;;;;;5087443;28;20078;-59
2023/03/18 00:53:51;;;;;;;6.18;1.23;;;24.70;34.40;;;;;;5087278;28;20537;-61
2023/03/18 00:56:19;;;;;;;3.85;1.05;;;24.70;34.70;;;;;;5088483;28;20545;-57
2023/03/18 00:58:46;;;;;;;3.72;1.42;;;24.60;34.80;;;;;;5079552;28;20208;-55
2023/03/18 01:01:14;;;;;;;5.40;1.00;;;24.50;34.80;;;;;;5087550;28;20087;-58
2023/03/18 01:03:41;;;;;;;3.28;1.40;;;24.30;34.40;;;;;;5085077;28;20071;-58
2023/03/18 01:06:13;;;;;;;6.47;1.45;;;24.20;35.00;;;;;;5087309;28;20116;-57
2023/03/18 01:08:41;;;;;;;5.40;1.50;;;24.20;35.50;;;;;;5089795;28;20079;-57
2023/03/18 01:11:08;;;;;;;6.63;1.27;;;24.00;35.80;;;;;;5089515;28;20162;-57
2023/03/18 01:13:36;;;;;;;3.65;1.17;;;24.10;36.10;;;;;;5088491;28;20107;-57
2023/03/18 01:16:04;;;;;;;3.85;1.13;;;24.10;35.50;;;;;;5088685;28;20075;-59
2023/03/18 01:18:30;;;;;;;2.03;1.10;;;24.00;35.70;;;;;;5089372;28;20095;-58
2023/03/18 01:20:57;;;;;;;3.70;1.20;;;23.90;35.30;;;;;;5088113;28;20577;-60
2023/03/18 01:23:24;;;;;;;5.40;0.88;;;23.80;35.50;;;;;;5084402;28;20082;-58
2023/03/18 01:25:51;;;;;;;3.10;1.80;;;23.70;35.50;;;;;;5089436;28;20056;-59
2023/03/18 01:28:18;;;;;;;7.00;1.73;;;23.70;36.00;;;;;;5088586;28;20091;-57
2023/03/18 01:30:44;;;;;;;4.68;1.30;;;23.50;35.90;;;;;;5085642;28;20074;-59
2023/03/18 01:33:11;;;;;;;5.35;1.90;;;23.40;36.00;;;;;;5078270;28;20067;-59
2023/03/18 01:35:37;;;;;;;2.40;1.50;;;23.30;36.50;;;;;;5083563;28;20075;-57
2023/03/18 01:38:05;;;;;;;2.78;1.40;;;23.30;36.70;;;;;;5085479;28;20560;-58
2023/03/18 01:40:36;;;;;;;10.23;1.63;;;23.30;36.70;;;;;;5086797;28;20189;-57
2023/03/18 01:43:17;;;;;;;7.22;1.67;;;23.10;37.70;;;;;;5087746;28;21407;-56
2023/03/18 01:45:52;;;;;;;5.43;1.42;;;23.10;37.30;;;;;;5087957;28;20509;-59
2023/03/18 01:48:22;;;;;;;8.18;1.45;;;23.00;37.60;;;;;;5087741;28;20079;-57
2023/03/18 01:51:03;;;;;;;5.72;1.40;;;22.90;37.80;;;;;;5087113;28;20075;-58
2023/03/18 01:53:35;;;;;;;3.80;1.55;;;22.80;38.30;;;;;;5087077;28;20541;-60
2023/03/18 01:56:02;;;;;;;4.45;1.52;;;22.70;38.80;;;;;;5087738;28;20079;-56
2023/03/18 01:58:51;;;;;;;7.85;1.40;;;22.60;39.10;;;;;;5088642;28;20595;-55
2023/03/18 02:01:32;;;;;;;5.70;1.77;;;22.50;39.20;;;;;;5088514;28;20075;-57
2023/03/18 02:03:59;;;;;;;8.20;1.70;;;22.50;39.30;;;;;;5084872;28;20067;-59
2023/03/18 02:06:26;;;;;;;10.73;1.98;;;22.40;39.70;;;;;;5087579;28;20082;-57
2023/03/18 02:08:54;;;;;;;3.53;1.75;;;22.30;40.60;;;;;;5088002;28;20132;-57
2023/03/18 02:11:22;;;;;;;9.35;2.35;;;22.20;40.80;;;;;;5087937;28;20063;-59
2023/03/18 02:13:49;;;;;;;7.32;2.20;;;22.00;40.20;;;;;;5086034;28;20103;-58
2023/03/18 02:16:43;;;;;;;5.20;1.98;;;21.90;39.90;;;;;;5087825;28;20412;-59
2023/03/18 02:19:16;;;;;;;9.43;2.35;;;21.90;41.00;;;;;;5079376;28;20098;-57
2023/03/18 02:22:07;;;;;;;12.35;2.08;;;21.80;41.20;;;;;;5087742;28;20076;-56
2023/03/18 02:24:33;;;;;;;8.63;2.42;;;21.70;41.50;;;;;;5085142;28;20159;-59
2023/03/18 02:27:11;;;;;;;8.30;2.30;;;21.60;41.50;;;;;;5088211;28;20100;-57
2023/03/18 02:29:39;;;;;;;7.65;2.10;;;21.50;43.50;;;;;;5087351;28;20087;-56
2023/03/18 02:32:07;;;;;;;12.50;2.45;;;21.50;43.20;;;;;;5088140;28;20128;-56
2023/03/18 02:34:36;;;;;;;9.68;3.05;;;21.40;44.10;;;;;;5087809;28;20086;-59
2023/03/18 02:37:03;;;;;;;8.98;2.80;;;21.40;44.50;;;;;;5087761;28;20479;-58
2023/03/18 02:39:30;;;;;;;7.82;3.08;;;21.20;43.90;;;;;;5087909;28;20074;-60
2023/03/18 02:41:57;;;;;;;14.82;3.20;;;21.20;43.30;;;;;;5081748;28;20585;-60
2023/03/18 02:44:24;;;;;;;11.35;3.08;;;21.10;43.80;;;;;;5087301;28;20147;-60
2023/03/18 02:47:05;;;;;;;13.15;3.25;;;21.00;45.50;;;;;;5087936;28;20075;-62
2023/03/18 02:49:31;;;;;;;15.13;3.60;;;20.90;44.60;;;;;;5087715;28;20151;-60
2023/03/18 02:51:58;;;;;;;12.75;3.35;;;20.70;43.80;;;;;;5085938;28;20499;-59
2023/03/18 02:54:28;;;;;;;13.70;4.35;;;20.70;44.20;;;;;;5083201;28;20072;-60
2023/03/18 02:56:54;;;;;;;17.40;4.80;;;20.60;45.00;;;;;;5083216;28;20167;-59
2023/03/18 02:59:21;;;;;;;17.70;5.72;;;20.60;45.30;;;;;;5085374;28;20099;-56
2023/03/18 03:01:50;;;;;;;32.00;8.85;;;20.60;44.80;;;;;;5087695;28;20067;-57
2023/03/18 03:04:18;;;;;;;22.80;7.35;;;20.50;44.30;;;;;;5088666;28;20091;-62
2023/03/18 03:06:45;;;;;;;26.98;7.07;;;20.40;44.20;;;;;;5085290;28;20389;-61
2023/03/18 03:09:15;;;;;;;18.05;7.15;;;20.40;44.50;;;;;;5087526;28;20117;-57
2023/03/18 03:11:43;;;;;;;29.08;7.40;;;20.40;46.00;;;;;;5087454;28;20155;-60
2023/03/18 03:14:10;;;;;;;22.10;6.95;;;20.30;45.80;;;;;;5083064;28;20187;-63
2023/03/18 03:16:37;;;;;;;18.63;7.65;;;20.20;45.80;;;;;;5086131;28;20092;-60
2023/03/18 03:19:04;;;;;;;25.70;9.07;;;20.20;45.80;;;;;;5085763;28;20092;-57
2023/03/18 03:21:34;;;;;;;29.30;8.63;;;20.20;46.60;;;;;;5081900;28;20080;-60
2023/03/18 03:24:03;;;;;;;28.10;9.10;;;20.00;46.40;;;;;;5076743;28;20535;-62
2023/03/18 03:26:30;;;;;;;25.17;9.18;;;20.00;46.60;;;;;;5091142;28;20076;-61
2023/03/18 03:28:57;;;;;;;23.75;9.23;;;19.90;47.10;;;;;;5091336;28;20071;-60
2023/03/18 03:31:25;;;;;;;20.65;8.13;;;19.80;47.60;;;;;;5090970;28;20450;-58
2023/03/18 03:33:52;;;;;;;24.58;8.10;;;19.90;48.70;;;;;;5090993;28;20067;-58
2023/03/18 03:36:18;;;;;;;24.52;7.35;;;19.80;48.00;;;;;;5088377;28;20116;-58
2023/03/18 03:38:45;;;;;;;23.98;7.85;;;19.70;48.30;;;;;;5091828;28;20083;-60
2023/03/18 03:41:14;;;;;;;23.33;7.57;;;19.70;48.80;;;;;;5090909;28;20071;-59
2023/03/18 03:43:42;;;;;;;19.67;7.55;;;19.60;48.60;;;;;;5089413;28;20105;-58
2023/03/18 03:46:09;;;;;;;25.48;7.32;;;19.60;49.10;;;;;;5089260;28;20124;-60
2023/03/18 03:48:37;;;;;;;26.20;7.78;;;19.60;50.70;;;;;;5091605;28;20075;-59
2023/03/18 03:51:04;;;;;;;32.50;7.07;;;19.60;50.60;;;;;;5091532;28;20097;-57
2023/03/18 03:53:31;;;;;;;33.53;6.82;;;19.50;50.60;;;;;;5091546;28;20133;-59
2023/03/18 03:55:57;;;;;;;26.77;6.88;;;19.40;50.40;;;;;;5090529;28;20067;-57
2023/03/18 03:58:24;;;;;;;32.03;7.10;;;19.40;50.10;;;;;;5089690;28;20272;-57
2023/03/18 04:00:51;;;;;;;21.38;6.47;;;19.40;49.80;;;;;;5090445;28;20400;-60
2023/03/18 04:03:17;;;;;;;39.45;7.57;;;19.30;50.40;;;;;;5088062;28;20064;-59
2023/03/18 04:05:43;;;;;;;26.65;8.07;;;19.30;50.20;;;;;;5090149;28;20072;-60
2023/03/18 04:08:10;;;;;;;28.10;8.25;;;19.30;50.40;;;;;;5090458;28;20076;-59
2023/03/18 04:10:37;;;;;;;26.83;7.63;;;19.20;50.80;;;;;;5090986;28;20084;-61
2023/03/18 04:13:04;;;;;;;25.17;6.88;;;19.20;51.10;;;;;;5081873;28;20103;-53
2023/03/18 04:15:31;;;;;;;19.10;6.70;;;19.30;51.20;;;;;;5088521;28;20162;-59
2023/03/18 04:18:01;;;;;;;21.90;6.57;;;19.30;50.40;;;;;;5084661;28;20629;-61
2023/03/18 04:20:27;;;;;;;20.83;6.38;;;19.30;50.60;;;;;;5089977;28;20567;-57
2023/03/18 04:22:53;;;;;;;18.92;6.22;;;19.30;51.30;;;;;;5088326;28;20578;-60
2023/03/18 04:25:21;;;;;;;21.13;6.43;;;19.30;51.20;;;;;;5087744;28;20078;-58
2023/03/18 04:27:47;;;;;;;17.45;6.22;;;19.30;51.00;;;;;;5088368;28;20111;-55
2023/03/18 04:30:14;;;;;;;22.50;6.25;;;19.30;51.50;;;;;;5080216;28;20072;-59
2023/03/18 04:32:40;;;;;;;14.30;5.20;;;19.30;51.60;;;;;;5083656;28;20125;-58
2023/03/18 04:35:08;;;;;;;23.23;5.90;;;19.30;52.00;;;;;;5085547;28;20103;-55
2023/03/18 04:37:35;;;;;;;21.40;4.80;;;19.30;52.50;;;;;;5084738;28;20088;-59
2023/03/18 04:40:03;;;;;;;13.27;4.82;;;19.30;52.30;;;;;;5089393;28;20091;-58
2023/03/18 04:42:30;;;;;;;14.45;4.80;;;19.10;52.40;;;;;;5088825;28;20063;-59
2023/03/18 04:44:57;;;;;;;20.77;4.85;;;19.20;52.80;;;;;;5085902;28;20564;-58
2023/03/18 04:47:24;;;;;;;14.20;5.03;;;19.10;52.90;;;;;;5089266;28;20158;-57
2023/03/18 04:49:50;;;;;;;17.45;5.05;;;19.10;52.70;;;;;;5089405;28;20078;-57
2023/03/18 04:52:16;;;;;;;17.20;5.32;;;19.10;53.00;;;;;;5089833;28;20144;-56
2023/03/18 04:54:43;;;;;;;14.30;4.97;;;19.00;52.90;;;;;;5083225;28;20075;-58
2023/03/18 04:57:10;;;;;;;14.13;5.20;;;19.00;53.30;;;;;;5088627;28;20194;-59
2023/03/18 04:59:36;;;;;;;17.33;5.90;;;18.90;53.00;;;;;;5089024;28;20063;-57
2023/03/18 05:02:03;;;;;;;16.30;5.93;;;18.90;52.90;;;;;;5085950;28;20068;-58
2023/03/18 05:04:30;;;;;;;17.35;6.43;;;18.90;52.90;;;;;;5085059;28;20126;-55
2023/03/18 05:06:57;;;;;;;17.90;6.22;;;18.90;52.90;;;;;;5085541;28;20072;-58
2023/03/18 05:09:24;;;;;;;77.93;8.63;;;18.80;52.60;;;;;;5085881;28;20434;-61
2023/03/18 05:11:50;;;;;;;70.28;8.88;;;18.80;53.30;;;;;;5078716;28;20103;-60
2023/03/18 05:14:17;;;;;;;344.20;26.58;;;18.70;53.50;;;;;;5087706;28;20632;-61
2023/03/18 05:16:43;;;;;;;363.27;27.60;;;18.70;54.00;;;;;;5081435;28;20068;-62
2023/03/18 05:19:10;;;;;;;67.35;9.23;;;18.70;53.90;;;;;;5073391;28;20092;-62
2023/03/18 05:21:37;;;;;;;97.65;11.02;;;18.50;55.30;;;;;;5080137;28;20591;-62
2023/03/18 05:24:03;;;;;;;54.42;7.95;;;18.50;55.00;;;;;;5081028;28;20071;-60
2023/03/18 05:26:30;;;;;;;54.30;7.63;;;18.30;54.80;;;;;;5083966;28;20167;-61
2023/03/18 05:28:57;;;;;;;34.80;6.70;;;18.30;55.00;;;;;;5084376;28;20090;-62
2023/03/18 05:31:24;;;;;;;32.40;6.60;;;18.20;56.20;;;;;;5082133;28;20074;-62
2023/03/18 05:33:50;;;;;;;42.47;7.38;;;18.30;55.30;;;;;;5084671;28;20072;-65
2023/03/18 05:36:18;;;;;;;71.97;9.93;;;18.20;54.80;;;;;;5080502;28;20547;-62
2023/03/18 05:38:44;;;;;;;41.90;7.28;;;18.20;55.50;;;;;;5063019;28;20123;-61
2023/03/18 05:41:10;;;;;;;39.67;7.80;;;18.20;55.20;;;;;;5083261;28;20118;-63
2023/03/18 05:43:37;;;;;;;44.05;8.18;;;18.00;55.30;;;;;;5077550;28;20068;-64
2023/03/18 05:46:04;;;;;;;22.73;7.22;;;18.00;56.00;;;;;;5078934;28;20142;-63
2023/03/18 05:48:30;;;;;;;22.20;7.25;;;17.90;55.90;;;;;;5077867;28;20068;-63
2023/03/18 05:50:57;;;;;;;41.95;10.88;;;17.90;55.80;;;;;;5080707;28;20843;-62
2023/03/18 05:53:24;;;;;;;26.92;8.93;;;17.80;55.90;;;;;;5083243;28;20069;-60
2023/03/18 05:55:50;;;;;;;17.58;7.50;;;17.80;56.20;;;;;;5074692;28;20083;-61
2023/03/18 05:58:17;;;;;;;20.73;7.10;;;17.80;55.70;;;;;;5086023;28;20565;-61
2023/03/18 06:00:44;;;;;;;22.35;9.32;;;17.80;55.20;;;;;;5083849;28;20076;-59
2023/03/18 06:03:10;;;;;;;23.50;8.40;;;17.80;55.60;;;;;;5085509;28;20519;-60
2023/03/18 06:05:37;;;;;;;25.00;9.00;;;17.70;56.60;;;;;;5078099;28;20087;-59
2023/03/18 06:08:03;;;;;;;27.33;9.20;;;17.70;57.10;;;;;;5079556;28;20090;-59
2023/03/18 06:10:31;;;;;;;27.10;7.90;;;17.70;56.40;;;;;;5079577;28;20555;-60
2023/03/18 06:12:57;;;;;;;25.75;8.30;;;17.50;57.70;;;;;;5079927;28;20556;-60
2023/03/18 06:15:24;;;;;;;33.30;9.30;;;17.50;57.50;;;;;;5079885;28;20128;-61
2023/03/18 06:17:51;;;;;;;27.27;8.55;;;17.40;57.80;;;;;;5074603;28;20153;-60
2023/03/18 06:20:18;;;;;;;30.55;8.82;;;17.40;57.90;;;;;;5086849;28;20651;-61
2023/03/18 06:22:48;;;;;;;25.65;9.18;;;17.30;57.50;;;;;;5082521;28;20060;-63
2023/03/18 06:25:19;;;;;;;31.67;12.90;;;17.40;57.60;;;;;;5077542;28;20124;-62
2023/03/18 06:27:46;;;;;;;37.80;16.92;;;17.40;57.50;;;;;;5082881;28;20597;-60
2023/03/18 06:30:14;;;;;;;34.67;12.82;;;17.40;57.80;;;;;;5082646;28;20068;-62
2023/03/18 06:32:40;;;;;;;30.30;10.90;;;17.40;57.60;;;;;;5084627;28;20163;-60
2023/03/18 06:35:07;;;;;;;44.25;12.95;;;17.30;57.30;;;;;;5085483;28;20499;-60
2023/03/18 06:37:34;;;;;;;36.67;13.52;;;17.10;57.90;;;;;;5084511;28;20551;-60
2023/03/18 06:40:00;;;;;;;47.03;13.88;;;17.20;57.60;;;;;;5083025;28;20129;-60
2023/03/18 06:42:27;;;;;;;43.85;14.68;;;17.20;57.00;;;;;;5085800;28;20084;-62
2023/03/18 06:44:53;;;;;;;36.20;13.02;;;17.20;56.80;;;;;;5083137;28;20106;-58
2023/03/18 06:47:21;;;;;;;40.80;13.13;;;17.10;56.60;;;;;;5085287;28;20084;-64
2023/03/18 06:49:49;;;;;;;37.10;12.82;;;17.00;58.60;;;;;;5078389;28;20099;-60
2023/03/18 06:52:17;;;;;;;38.25;12.98;;;17.00;58.40;;;;;;5086956;28;20117;-61
2023/03/18 06:54:44;;;;;;;42.40;12.70;;;16.90;58.30;;;;;;5087173;28;20083;-60
2023/03/18 06:57:12;;;;;;;34.28;12.45;;;16.70;59.20;;;;;;5088300;28;20121;-61
2023/03/18 06:59:38;;;;;;;40.17;12.68;;;16.70;59.00;;;;;;5067535;28;20503;-58
2023/03/18 07:02:05;;;;;;;35.40;11.38;;;16.70;58.60;;;;;;5087056;28;20401;-60
2023/03/18 07:04:32;;;;;;;33.35;13.05;;;16.70;60.00;;;;;;5088354;28;20168;-58
2023/03/18 07:06:59;;;;;;;37.15;11.95;;;16.50;59.50;;;;;;5086878;28;20068;-60
2023/03/18 07:09:26;;;;;;;37.55;12.35;;;16.40;58.90;;;;;;5092441;28;20140;-60
2023/03/18 07:11:53;;;;;;;30.52;11.02;;;16.40;58.90;;;;;;5089166;28;20080;-60
2023/03/18 07:14:19;;;;;;;35.90;11.32;;;16.50;58.70;;;;;;5087514;28;20107;-62
2023/03/18 07:16:46;;;;;;;22.75;10.52;;;16.50;58.90;;;;;;5083784;28;20083;-61
2023/03/18 07:19:14;;;;;;;35.17;11.75;;;16.40;59.80;;;;;;5086761;28;20092;-59
2023/03/18 07:21:41;;;;;;;32.70;10.55;;;16.30;60.30;;;;;;5090996;28;20072;-59
2023/03/18 07:24:10;;;;;;;32.03;11.00;;;16.40;60.50;;;;;;5079619;28;21918;-56
2023/03/18 07:26:36;;;;;;;32.58;13.80;;;16.40;60.20;;;;;;5086413;28;20091;-58
2023/03/18 07:29:04;;;;;;;47.20;10.85;;;16.40;59.30;;;;;;5083994;28;20609;-59
2023/03/18 07:31:30;;;;;;;35.75;10.88;;;16.30;59.60;;;;;;5079440;28;20183;-60
2023/03/18 07:33:57;;;;;;;29.40;10.35;;;16.30;58.20;;;;;;5087330;28;20076;-60
2023/03/18 07:36:25;;;;;;;35.58;10.27;;;16.20;58.90;;;;;;5081869;28;20627;-59
2023/03/18 07:38:52;;;;;;;28.05;8.68;;;16.20;58.80;;;;;;5081948;28;22055;-61
2023/03/18 07:41:18;;;;;;;23.02;7.82;;;16.20;57.50;;;;;;5083907;28;20645;-59
2023/03/18 07:43:44;;;;;;;28.65;8.68;;;16.20;57.00;;;;;;5088518;28;20069;-60
2023/03/18 07:46:11;;;;;;;39.53;9.75;;;16.10;56.90;;;;;;5080191;28;20100;-60
2023/03/18 07:48:37;;;;;;;30.90;8.73;;;16.00;58.40;;;;;;5082054;28;20087;-60
2023/03/18 07:51:04;;;;;;;24.10;7.72;;;15.80;58.10;;;;;;5085539;28;20445;-60
2023/03/18 07:53:30;;;;;;;38.53;15.40;;;15.80;56.20;;;;;;5078648;28;20100;-61
2023/03/18 07:55:57;;;;;;;42.85;19.98;;;15.70;56.20;;;;;;5085337;28;20092;-59
2023/03/18 07:58:24;;;;;;;39.60;18.70;;;15.80;57.00;;;;;;5090450;28;20187;-60
2023/03/18 08:00:52;;;;;;;41.15;18.58;;;15.70;57.90;;;;;;5089875;28;20087;-59
2023/03/18 08:03:19;;;;;;;52.50;20.73;;;15.70;58.50;;;;;;5086975;28;20114;-60
2023/03/18 08:05:45;;;;;;;26.45;8.02;;;15.70;58.80;;;;;;5081212;28;20068;-59
2023/03/18 08:08:12;;;;;;;27.60;8.45;;;15.60;59.10;;;;;;5089599;28;20080;-60
2023/03/18 08:10:38;;;;;;;28.52;9.55;;;15.60;59.00;;;;;;5086300;28;20217;-59
2023/03/18 08:13:05;;;;;;;28.95;8.85;;;15.70;58.70;;;;;;5088192;28;20111;-59
2023/03/18 08:15:31;;;;;;;27.02;10.48;;;15.70;58.80;;;;;;5083826;28;20165;-60
2023/03/18 08:17:58;;;;;;;38.10;10.13;;;15.80;58.70;;;;;;5078910;28;20557;-60
2023/03/18 08:20:25;;;;;;;41.22;11.15;;;15.70;59.00;;;;;;5087975;28;20241;-61
2023/03/18 08:22:52;;;;;;;38.25;11.98;;;15.60;58.70;;;;;;5088271;28;20061;-60
2023/03/18 08:25:20;;;;;;;38.35;11.85;;;15.50;59.00;;;;;;5084597;28;20107;-61
2023/03/18 08:27:47;;;;;;;43.50;12.35;;;15.60;59.70;;;;;;5087831;28;20073;-59
2023/03/18 08:30:14;;;;;;;35.25;13.23;;;15.40;59.70;;;;;;5082917;28;20073;-60
2023/03/18 08:32:41;;;;;;;40.83;13.90;;;15.50;59.10;;;;;;5079941;28;20444;-63
2023/03/18 08:35:10;;;;;;;39.00;14.48;;;15.40;59.20;;;;;;5083596;28;20073;-61
2023/03/18 08:37:36;;;;;;;38.42;14.43;;;15.40;58.70;;;;;;5080550;28;20085;-59
2023/03/18 08:40:04;;;;;;;38.72;14.18;;;15.30;58.20;;;;;;5083678;28;20151;-60
2023/03/18 08:42:30;;;;;;;30.00;12.85;;;15.40;57.80;;;;;;5089322;28;20063;-60
2023/03/18 08:44:56;;;;;;;;;;;15.30;57.60;;;;;;5088398;28;20615;-59
2023/03/18 08:47:24;;;;;;;42.22;13.13;;;15.30;59.20;;;;;;5086289;28;19960;-60
2023/03/18 08:49:50;;;;;;;36.30;12.88;;;15.20;59.40;;;;;;5081192;28;20085;-60
2023/03/18 08:52:17;;;;;;;35.75;12.02;;;15.30;59.20;;;;;;5089054;28;20450;-59
2023/03/18 08:54:44;;;;;;;29.80;10.80;;;15.30;58.70;;;;;;5082770;28;20141;-59
2023/03/18 08:57:11;;;;;;;31.48;12.35;;;15.20;57.90;;;;;;5082283;28;20073;-58
2023/03/18 08:59:37;;;;;;;35.67;10.73;;;15.10;58.80;;;;;;5087774;28;20122;-57
2023/03/18 09:02:04;;;;;;;28.58;10.93;;;15.10;58.40;;;;;;5087422;28;20084;-59
2023/03/18 09:04:31;;;;;;;29.60;10.30;;;15.10;58.30;;;;;;5081237;28;20171;-60
2023/03/18 09:06:59;;;;;;;30.23;10.02;;;15.10;58.00;;;;;;5086062;28;20081;-60
2023/03/18 09:09:26;;;;;;;22.73;10.25;;;14.90;59.00;;;;;;5088513;28;20084;-60
2023/03/18 09:11:53;;;;;;;27.13;11.07;;;14.90;57.20;;;;;;5086204;28;20065;-60
2023/03/18 09:14:19;;;;;;;29.67;10.77;;;14.90;56.70;;;;;;5075634;28;20118;-60
2023/03/18 09:16:45;;;;;;;;;;;14.90;56.80;;;;;;5107925;27;20075;-59
2023/03/18 09:19:12;;;;;;;31.98;11.52;;;15.00;56.70;;;;;;5106422;28;20031;-60
2023/03/18 09:21:38;;;;;;;36.08;11.82;;;14.90;56.80;;;;;;5102116;28;20509;-59
2023/03/18 09:24:04;;;;;;;;;;;14.90;57.70;;;;;;5102200;28;20071;-60
2023/03/18 09:26:31;;;;;;;33.60;12.13;;;14.90;57.20;;;;;;5107663;27;19963;-58
2023/03/18 09:28:57;;;;;;;37.22;12.68;;;14.90;56.80;;;;;;5105749;28;20076;-58
2023/03/18 09:31:23;;;;;;;;;;;14.90;57.50;;;;;;5085859;28;20085;-60
2023/03/18 09:33:49;;;;;;;37.67;12.48;;;14.80;56.20;;;;;;5103623;28;19996;-60
2023/03/18 09:36:16;;;;;;;;;;;14.80;56.00;;;;;;5108212;28;20076;-60
2023/03/18 09:38:43;;;;;;;33.35;12.57;;;14.80;55.40;;;;;;5102941;28;19980;-60
2023/03/18 09:41:09;;;;;;;36.83;13.05;;;14.80;55.30;;;;;;5107710;28;20075;-59
2023/03/18 09:43:54;;;;;;;40.67;12.20;;;14.70;55.40;;;;;;5104803;28;20151;-58
2023/03/18 09:46:23;;;;;;;48.08;15.02;;;14.80;55.70;;;;;;5104248;28;20076;-59
2023/03/18 09:48:57;;;;;;;56.00;16.08;;;14.80;56.30;;;;;;5091355;28;20435;-59
2023/03/18 09:51:45;;;;;;;48.22;15.43;;;14.80;57.50;;;;;;5102356;28;20086;-61
2023/03/18 09:54:14;;;;;;;56.40;18.60;;;14.80;57.70;;;;;;5107956;28;20083;-61
2023/03/18 09:56:42;;;;;;;71.97;21.10;;;14.70;58.80;;;;;;5104068;28;20068;-60
2023/03/18 09:59:20;;;;;;;80.55;24.00;;;14.70;59.40;;;;;;5085861;28;20139;-60
2023/03/18 10:01:53;;;;;;;91.65;26.90;;;14.70;59.90;;;;;;5108048;28;20110;-61
2023/03/18 10:04:39;;;;;;;78.22;29.30;;;14.70;61.10;;;;;;5106566;28;20068;-60
2023/03/18 10:07:17;;;;;;;104.35;32.25;;;14.70;61.80;;;;;;5106807;27;20120;-60
2023/03/18 10:09:52;;;;;;;88.43;31.63;;;14.60;62.40;;;;;;5100097;28;20087;-59
2023/03/18 10:12:44;;;;;;;92.85;31.63;;;14.60;63.50;;;;;;5100070;28;20531;-59
2023/03/18 10:15:20;;;;;;;97.40;30.92;;;14.60;63.20;;;;;;5088198;28;20108;-57
2023/03/18 10:17:57;;;;;;;94.60;32.05;;;14.60;62.60;;;;;;5088550;28;20132;-59
2023/03/18 10:20:36;;;;;;;95.50;32.70;;;14.60;63.20;;;;;;5088453;28;20938;-58
2023/03/18 10:23:09;;;;;;;83.22;29.25;;;14.60;63.40;;;;;;5087189;28;20115;-58
2023/03/18 10:25:40;;;;;;;92.43;29.00;;;14.60;62.90;;;;;;5088590;28;20076;-56
2023/03/18 10:28:32;;;;;;;88.05;29.15;;;14.60;62.80;;;;;;5089746;28;20145;-59
2023/03/18 10:31:22;;;;;;;89.43;28.60;;;14.60;62.20;;;;;;5085860;28;20095;-60
2023/03/18 10:33:59;;;;;;;71.00;26.98;;;14.40;62.80;;;;;;5088777;28;20452;-59
2023/03/18 10:36:28;;;;;;;;;;;14.50;62.50;;;;;;5089383;28;20085;-59
2023/03/18 10:38:56;;;;;;;68.03;26.70;;;14.40;62.00;;;;;;5088278;28;19977;-57
2023/03/18 10:41:35;;;;;;;77.57;24.42;;;14.50;62.10;;;;;;5089130;28;20498;-59
2023/03/18 10:44:13;;;;;;;72.68;23.05;;;14.50;61.10;;;;;;5088231;28;20073;-60
2023/03/18 10:46:41;;;;;;;76.43;23.17;;;14.50;59.70;;;;;;5087160;28;20091;-59
2023/03/18 10:49:31;;;;;;;93.72;24.52;;;14.50;58.80;;;;;;5088762;28;20079;-60
2023/03/18 10:52:33;;;;;;;60.28;22.27;;;14.50;59.10;;;;;;5071449;28;20073;-59
2023/03/18 10:54:59;;;;;;;61.33;21.73;;;14.60;58.40;;;;;;5004872;28;20136;-59
2023/03/18 10:57:26;;;;;;;51.88;19.40;;;14.60;58.60;;;;;;4999070;28;20079;-59
2023/03/18 10:59:53;;;;;;;50.55;17.60;;;14.50;58.00;;;;;;5005897;28;20129;-60
2023/03/18 11:02:40;;;;;;;39.72;14.75;;;14.50;57.00;;;;;;5006144;28;20553;-58
2023/03/18 11:05:30;;;;;;;46.20;14.07;;;14.50;56.30;;;;;;5005143;28;20078;-60
2023/03/18 11:08:05;;;;;;;50.25;14.25;;;14.40;56.00;;;;;;5006013;28;20221;-59
2023/03/18 11:10:44;;;;;;;46.58;14.73;;;14.40;56.00;;;;;;4995729;28;20469;-59
2023/03/18 11:13:19;;;;;;;51.75;15.45;;;14.40;56.70;;;;;;5004147;28;20105;-60
2023/03/18 11:15:50;;;;;;;43.05;13.75;;;14.40;56.10;;;;;;5005633;28;20092;-59
2023/03/18 11:18:21;;;;;;;40.05;13.48;;;14.30;55.70;;;;;;5005629;28;20118;-59
2023/03/18 11:20:59;;;;;;;37.20;13.18;;;14.30;55.80;;;;;;5005323;28;20133;-58
2023/03/18 11:26:47;;;;;;;34.58;11.95;;;14.30;55.70;;;;;;4966770;28;20190;-58
2023/03/18 11:29:20;;;;;;;39.10;10.68;;;14.20;55.40;;;;;;4967153;28;20087;-60
2023/03/18 11:31:57;;;;;;;23.42;8.25;;;14.10;55.50;;;;;;4999322;28;20086;-59
2023/03/18 11:34:25;;;;;;;16.15;6.63;;;14.10;55.20;;;;;;5017350;28;20082;-60
2023/03/18 11:36:57;;;;;;;21.38;6.38;;;14.00;53.70;;;;;;5012134;28;20099;-60
2023/03/18 11:39:26;;;;;;;17.15;6.10;;;14.00;54.00;;;;;;5011328;28;20155;-60
2023/03/18 11:41:52;;;;;;;23.83;5.50;;;14.00;54.10;;;;;;5014657;28;20556;-60
2023/03/18 11:44:28;;;;;;;20.67;5.25;;;14.10;54.30;;;;;;5009583;28;20157;-60
2023/03/18 11:47:14;;;;;;;20.17;5.68;;;13.90;54.20;;;;;;5013897;28;20541;-59
2023/03/18 11:49:42;;;;;;;21.50;5.35;;;14.00;54.90;;;;;;5009939;28;20118;-59
2023/03/18 11:52:28;;;;;;;16.80;5.88;;;13.90;54.30;;;;;;5015180;28;20078;-59
2023/03/18 11:55:18;;;;;;;16.63;5.07;;;13.90;54.70;;;;;;5022713;28;20589;-60
2023/03/18 11:57:59;;;;;;;20.38;5.80;;;13.90;55.30;;;;;;5017540;28;20185;-60
2023/03/18 12:00:47;;;;;;;24.70;6.65;;;14.00;54.90;;;;;;5015671;28;20110;-60
2023/03/18 12:03:52;;;;;;;20.08;6.97;;;13.90;55.30;;;;;;5077515;28;20085;-60
2023/03/18 12:06:22;;;;;;;26.10;8.25;;;13.80;56.50;;;;;;5083237;28;20069;-60
2023/03/18 12:09:25;;;;;;;27.85;9.38;;;13.80;55.80;;;;;;5082130;28;20069;-59
2023/03/18 12:11:54;;;;;;;22.92;8.75;;;13.70;56.10;;;;;;5090411;28;20079;-60
2023/03/18 12:14:55;;;;;;;30.08;8.85;;;13.60;56.20;;;;;;5085305;28;20109;-59
2023/03/18 12:17:30;;;;;;;21.60;8.07;;;13.60;56.30;;;;;;5043493;28;20138;-60
2023/03/18 12:20:35;;;;;;;19.55;8.32;;;13.60;56.70;;;;;;5087885;28;20551;-58
2023/03/18 12:23:20;;;;;;;34.25;8.18;;;13.50;58.00;;;;;;5061341;28;21545;-59
2023/03/18 12:26:12;;;;;;;32.35;8.63;;;13.40;57.30;;;;;;5086461;28;20075;-59
2023/03/18 12:28:51;;;;;;;28.80;8.73;;;13.30;56.90;;;;;;5082522;28;20130;-59
2023/03/18 12:31:27;;;;;;;28.98;7.90;;;13.20;57.50;;;;;;5088371;28;20132;-60
2023/03/18 12:34:01;;;;;;;25.60;8.35;;;13.10;58.20;;;;;;5085517;28;20155;-60
2023/03/18 12:36:31;;;;;;;25.08;7.40;;;13.00;58.90;;;;;;5084092;28;20165;-61
2023/03/18 12:39:13;;;;;;;30.67;8.30;;;13.10;58.70;;;;;;5086214;28;20433;-61
2023/03/18 12:41:48;;;;;;;33.10;7.65;;;13.10;59.70;;;;;;5082233;28;20206;-60
2023/03/18 12:44:53;;;;;;;22.88;7.88;;;13.20;58.20;;;;;;5081225;28;20110;-60
2023/03/18 12:47:31;;;;;;;27.55;8.15;;;13.10;59.00;;;;;;5084838;28;20116;-59
2023/03/18 12:50:12;;;;;;;20.52;7.85;;;13.20;59.30;;;;;;5087245;28;20065;-57
2023/03/18 12:53:02;;;;;;;21.63;7.53;;;13.00;59.10;;;;;;5089162;28;20184;-57
2023/03/18 12:55:38;;;;;;;30.92;8.15;;;13.10;58.80;;;;;;5088675;28;20077;-62